createdAt,value
2023-04-07T00:01:02.580Z,5.90
2023-04-07T00:06:34.261Z,5.90
2023-04-07T00:09:01.714Z,5.90
2023-04-07T00:11:28.797Z,5.90
2023-04-07T00:13:56.375Z,5.90
2023-04-07T00:16:23.872Z,5.90
2023-04-07T00:18:51.313Z,5.90
2023-04-07T00:21:18.308Z,5.90
2023-04-07T00:23:47.116Z,5.90
2023-04-07T00:26:14.329Z,5.90
2023-04-07T00:28:44.225Z,5.90
2023-04-07T00:31:11.369Z,5.90
2023-04-07T00:33:38.692Z,5.90
2023-04-07T00:36:06.343Z,5.90
2023-04-07T00:38:33.715Z,5.90
2023-04-07T00:41:01.643Z,5.90
2023-04-07T00:43:28.982Z,6.00
2023-04-07T00:45:56.363Z,5.90
2023-04-07T00:48:24.009Z,6.00
2023-04-07T00:50:51.788Z,6.00
2023-04-07T00:53:19.950Z,6.00
2023-04-07T00:55:47.448Z,6.00
2023-04-07T00:58:14.753Z,6.00
2023-04-07T01:00:49.935Z,6.00
2023-04-07T01:03:26.207Z,6.00
2023-04-07T01:06:01.852Z,6.00
2023-04-07T01:08:51.648Z,6.00
2023-04-07T01:11:28.350Z,6.10
2023-04-07T01:13:58.972Z,6.00
2023-04-07T01:16:42.939Z,6.00
2023-04-07T01:19:35.724Z,6.10
2023-04-07T01:22:15.423Z,6.10
2023-04-07T01:24:58.078Z,6.10
2023-04-07T01:27:28.398Z,6.10
2023-04-07T01:29:56.968Z,6.10
2023-04-07T01:32:27.201Z,6.10
2023-04-07T01:34:57.329Z,6.10
2023-04-07T01:37:27.041Z,6.10
2023-04-07T01:39:54.786Z,6.10
2023-04-07T01:42:22.095Z,6.10
2023-04-07T01:44:51.194Z,6.10
2023-04-07T01:47:19.185Z,6.10
2023-04-07T01:49:48.203Z,6.10
2023-04-07T01:52:17.248Z,6.10
2023-04-07T01:54:45.579Z,6.10
2023-04-07T01:57:12.635Z,6.10
2023-04-07T01:59:41.388Z,6.10
2023-04-07T02:02:08.883Z,6.20
2023-04-07T02:04:45.448Z,6.20
2023-04-07T02:07:22.131Z,6.20
2023-04-07T02:09:56.646Z,6.10
2023-04-07T02:12:26.457Z,6.20
2023-04-07T02:15:09.346Z,6.20
2023-04-07T02:17:39.186Z,6.30
2023-04-07T02:20:10.048Z,6.30
2023-04-07T02:22:41.360Z,6.30
2023-04-07T02:25:28.573Z,6.30
2023-04-07T02:27:57.752Z,6.30
2023-04-07T02:30:26.088Z,6.30
2023-04-07T02:32:53.829Z,6.30
2023-04-07T02:35:21.313Z,6.30
2023-04-07T02:37:48.614Z,6.30
2023-04-07T02:40:16.404Z,6.30
2023-04-07T02:42:44.043Z,6.30
2023-04-07T02:45:12.233Z,6.20
2023-04-07T02:47:39.984Z,6.30
2023-04-07T02:50:07.848Z,6.20
2023-04-07T02:52:36.344Z,6.30
2023-04-07T02:55:10.298Z,6.30
2023-04-07T02:57:37.458Z,6.30
2023-04-07T03:00:10.226Z,6.20
2023-04-07T03:03:00.107Z,6.30
2023-04-07T03:05:31.495Z,6.30
2023-04-07T03:07:59.819Z,6.30
2023-04-07T03:10:27.460Z,6.30
2023-04-07T03:12:54.883Z,6.30
2023-04-07T03:15:22.930Z,6.30
2023-04-07T03:17:51.553Z,6.30
2023-04-07T03:20:19.895Z,6.30
2023-04-07T03:22:47.403Z,6.30
2023-04-07T03:25:27.962Z,6.30
2023-04-07T03:27:56.617Z,6.30
2023-04-07T03:30:26.401Z,6.30
2023-04-07T03:32:53.628Z,6.40
2023-04-07T03:35:21.470Z,6.40
2023-04-07T03:37:48.577Z,6.30
2023-04-07T03:40:18.747Z,6.40
2023-04-07T03:42:46.897Z,6.40
2023-04-07T03:45:15.781Z,6.40
2023-04-07T03:47:47.435Z,6.40
2023-04-07T03:50:16.252Z,6.40
2023-04-07T03:53:06.571Z,6.50
2023-04-07T03:55:35.080Z,6.50
2023-04-07T03:58:10.082Z,6.50
2023-04-07T04:00:38.455Z,6.50
2023-04-07T04:03:11.094Z,6.50
2023-04-07T04:05:46.890Z,6.50
2023-04-07T04:08:20.699Z,6.50
2023-04-07T04:10:48.198Z,6.50
2023-04-07T04:13:15.415Z,6.60
2023-04-07T04:15:43.898Z,6.60
2023-04-07T04:18:15.150Z,6.60
2023-04-07T04:20:43.357Z,6.60
2023-04-07T04:23:10.747Z,6.60
2023-04-07T04:25:40.854Z,6.60
2023-04-07T04:28:11.006Z,6.70
2023-04-07T04:30:38.663Z,6.70
2023-04-07T04:33:05.878Z,6.70
2023-04-07T04:35:54.216Z,6.70
2023-04-07T04:38:22.394Z,6.70
2023-04-07T04:40:55.482Z,6.70
2023-04-07T04:43:29.244Z,6.70
2023-04-07T04:45:57.035Z,6.80
2023-04-07T04:48:27.360Z,6.80
2023-04-07T04:50:54.907Z,6.80
2023-04-07T04:53:22.580Z,6.80
2023-04-07T04:55:56.256Z,6.90
2023-04-07T04:58:33.377Z,6.80
2023-04-07T05:01:01.317Z,6.90
2023-04-07T05:03:36.811Z,6.90
2023-04-07T05:06:11.603Z,6.90
2023-04-07T05:08:41.441Z,6.90
2023-04-07T05:11:09.500Z,6.90
2023-04-07T05:13:38.186Z,7.00
2023-04-07T05:16:06.683Z,7.00
2023-04-07T05:18:35.475Z,7.10
2023-04-07T05:21:04.651Z,7.00
2023-04-07T05:23:34.369Z,7.10
2023-04-07T05:26:02.983Z,7.20
2023-04-07T05:28:31.175Z,7.20
2023-04-07T05:31:03.833Z,7.20
2023-04-07T05:33:34.327Z,7.30
2023-04-07T05:36:03.523Z,7.30
2023-04-07T05:38:32.164Z,7.40
2023-04-07T05:41:06.343Z,7.50
2023-04-07T05:43:35.499Z,7.60
2023-04-07T05:46:02.849Z,7.50
2023-04-07T05:48:30.920Z,7.60
2023-04-07T05:50:59.109Z,7.60
2023-04-07T05:53:26.346Z,7.60
2023-04-07T05:55:53.788Z,7.70
2023-04-07T05:58:42.200Z,7.60
2023-04-07T06:01:10.942Z,7.70
2023-04-07T06:03:38.191Z,7.80
2023-04-07T06:06:12.543Z,7.80
2023-04-07T06:08:39.732Z,7.80
2023-04-07T06:11:07.057Z,7.80
2023-04-07T06:13:34.919Z,7.70
2023-04-07T06:16:03.385Z,7.80
2023-04-07T06:18:30.929Z,7.70
2023-04-07T06:20:59.526Z,7.70
2023-04-07T06:23:26.639Z,7.70
2023-04-07T06:25:54.200Z,7.80
2023-04-07T06:28:22.869Z,7.80
2023-04-07T06:30:50.471Z,7.80
2023-04-07T06:33:18.278Z,7.90
2023-04-07T06:35:46.593Z,7.90
2023-04-07T06:38:13.830Z,7.90
2023-04-07T06:40:41.273Z,7.90
2023-04-07T06:43:08.371Z,7.90
2023-04-07T06:45:43.000Z,8.00
2023-04-07T06:48:11.084Z,8.00
2023-04-07T06:50:38.744Z,8.10
2023-04-07T06:53:06.072Z,8.20
2023-04-07T06:55:33.361Z,8.20
2023-04-07T06:58:00.521Z,8.30
2023-04-07T07:00:30.232Z,8.40
2023-04-07T07:02:57.716Z,8.50
2023-04-07T07:05:25.575Z,8.50
2023-04-07T07:07:52.767Z,8.50
2023-04-07T07:10:23.008Z,8.60
2023-04-07T07:12:52.418Z,8.70
2023-04-07T07:15:19.736Z,8.80
2023-04-07T07:17:46.828Z,8.80
2023-04-07T07:20:14.426Z,8.90
2023-04-07T07:22:41.561Z,8.90
2023-04-07T07:25:09.286Z,9.00
2023-04-07T07:27:37.003Z,9.10
2023-04-07T07:30:05.645Z,9.20
2023-04-07T07:32:32.763Z,9.30
2023-04-07T07:35:00.311Z,9.30
2023-04-07T07:37:28.097Z,9.30
2023-04-07T07:39:56.351Z,9.40
2023-04-07T07:42:23.501Z,9.40
2023-04-07T07:44:51.046Z,9.40
2023-04-07T07:47:18.199Z,9.50
2023-04-07T07:49:45.630Z,9.40
2023-04-07T07:52:12.728Z,9.50
2023-04-07T07:54:40.004Z,9.60
2023-04-07T07:57:07.167Z,9.70
2023-04-07T07:59:34.848Z,9.80
2023-04-07T08:02:01.944Z,9.90
2023-04-07T08:04:29.441Z,10.10
2023-04-07T08:06:56.489Z,10.20
2023-04-07T08:09:23.905Z,10.30
2023-04-07T08:11:51.406Z,10.40
2023-04-07T08:14:19.092Z,10.50
2023-04-07T08:16:46.734Z,10.70
2023-04-07T08:19:14.101Z,10.90
2023-04-07T08:21:41.211Z,11.00
2023-04-07T08:24:10.059Z,11.10
2023-04-07T08:26:37.416Z,11.20
2023-04-07T08:29:04.791Z,11.30
2023-04-07T08:31:31.934Z,11.40
2023-04-07T08:33:59.908Z,11.40
2023-04-07T08:36:28.150Z,11.50
2023-04-07T08:38:55.653Z,11.50
2023-04-07T08:41:33.461Z,11.60
2023-04-07T08:44:02.427Z,11.70
2023-04-07T08:46:30.400Z,11.80
2023-04-07T08:48:58.152Z,11.80
2023-04-07T08:51:32.873Z,11.90
2023-04-07T08:54:14.880Z,11.90
2023-04-07T08:56:43.458Z,12.00
2023-04-07T08:59:13.744Z,12.00
2023-04-07T09:01:42.121Z,12.10
2023-04-07T09:04:10.876Z,12.20
2023-04-07T09:06:38.520Z,12.10
2023-04-07T09:09:06.313Z,12.10
2023-04-07T09:11:37.001Z,12.10
2023-04-07T09:14:04.529Z,12.20
2023-04-07T09:16:32.575Z,12.30
2023-04-07T09:19:00.025Z,12.30
2023-04-07T09:21:30.093Z,12.40
2023-04-07T09:23:57.573Z,12.50
2023-04-07T09:26:27.377Z,12.50
2023-04-07T09:29:03.100Z,12.60
2023-04-07T09:31:53.501Z,12.70
2023-04-07T09:34:29.008Z,12.70
2023-04-07T09:36:57.500Z,12.80
2023-04-07T09:39:25.763Z,12.80
2023-04-07T09:41:53.267Z,12.90
2023-04-07T09:44:25.045Z,12.90
2023-04-07T09:46:57.011Z,13.10
2023-04-07T09:49:26.147Z,13.20
2023-04-07T09:51:57.917Z,13.30
2023-04-07T09:54:39.342Z,13.50
2023-04-07T09:57:11.115Z,13.70
2023-04-07T09:59:42.578Z,13.90
2023-04-07T10:02:10.003Z,14.20
2023-04-07T10:04:39.159Z,14.40
2023-04-07T10:07:06.433Z,14.60
2023-04-07T10:09:33.913Z,14.70
2023-04-07T10:12:01.126Z,14.80
2023-04-07T10:14:31.287Z,14.70
2023-04-07T10:17:00.507Z,14.80
2023-04-07T10:19:34.584Z,14.80
2023-04-07T10:22:05.432Z,14.90
2023-04-07T10:24:45.188Z,15.10
2023-04-07T10:27:16.564Z,15.30
2023-04-07T10:29:47.846Z,15.60
2023-04-07T10:32:15.788Z,15.80
2023-04-07T10:34:53.657Z,16.00
2023-04-07T10:37:23.031Z,16.30
2023-04-07T10:40:09.353Z,16.40
2023-04-07T10:42:39.244Z,16.50
2023-04-07T10:45:09.294Z,17.00
2023-04-07T10:47:59.289Z,17.40
2023-04-07T10:50:26.804Z,18.00
2023-04-07T10:53:13.873Z,18.40
2023-04-07T10:55:43.768Z,18.70
2023-04-07T10:58:16.999Z,18.60
2023-04-07T11:01:07.601Z,18.40
2023-04-07T11:03:36.994Z,18.10
2023-04-07T11:06:08.420Z,17.80
2023-04-07T11:08:37.802Z,17.60
2023-04-07T11:11:09.741Z,17.30
2023-04-07T11:13:44.884Z,17.10
2023-04-07T11:16:12.984Z,16.80
2023-04-07T11:18:41.239Z,16.70
2023-04-07T11:21:09.522Z,16.50
2023-04-07T11:23:41.543Z,16.30
2023-04-07T11:26:13.204Z,16.10
2023-04-07T11:28:54.694Z,16.00
2023-04-07T11:31:29.385Z,15.80
2023-04-07T11:33:59.370Z,15.60
2023-04-07T11:36:31.181Z,15.50
2023-04-07T11:38:59.675Z,15.40
2023-04-07T11:41:30.587Z,15.30
2023-04-07T11:44:08.479Z,15.10
2023-04-07T11:46:36.454Z,15.00
2023-04-07T11:49:14.662Z,14.80
2023-04-07T11:51:44.337Z,14.70
2023-04-07T11:54:12.180Z,14.60
2023-04-07T11:56:47.159Z,14.40
2023-04-07T11:59:25.130Z,14.30
2023-04-07T12:01:55.443Z,14.30
2023-04-07T12:04:24.818Z,14.10
2023-04-07T12:06:52.292Z,14.00
2023-04-07T12:09:27.761Z,14.00
2023-04-07T12:11:57.132Z,13.90
2023-04-07T12:14:25.211Z,13.80
2023-04-07T12:16:56.238Z,13.80
2023-04-07T12:19:30.811Z,13.80
2023-04-07T12:21:58.119Z,13.90
2023-04-07T12:24:25.226Z,14.00
2023-04-07T12:26:53.125Z,14.00
2023-04-07T12:29:20.432Z,14.20
2023-04-07T12:31:50.762Z,14.30
2023-04-07T12:34:18.977Z,14.40
2023-04-07T12:36:46.336Z,14.50
2023-04-07T12:39:14.096Z,14.50
2023-04-07T12:41:42.101Z,14.50
2023-04-07T12:44:09.492Z,14.50
2023-04-07T12:46:37.157Z,14.40
2023-04-07T12:49:04.260Z,14.40
2023-04-07T12:51:33.480Z,14.30
2023-04-07T12:54:00.939Z,14.30
2023-04-07T12:56:28.728Z,14.20
2023-04-07T12:58:55.734Z,14.20
2023-04-07T13:01:23.145Z,14.20
2023-04-07T13:03:50.584Z,14.10
2023-04-07T13:06:19.404Z,14.10
2023-04-07T13:08:46.503Z,14.10
2023-04-07T13:11:13.855Z,14.10
2023-04-07T13:13:40.910Z,14.00
2023-04-07T13:16:08.633Z,14.00
2023-04-07T13:18:36.651Z,14.00
2023-04-07T13:23:42.894Z,13.90
2023-04-07T13:26:11.642Z,13.90
2023-04-07T13:28:39.149Z,13.90
2023-04-07T13:31:07.578Z,13.90
2023-04-07T13:33:35.538Z,13.90
2023-04-07T13:36:02.949Z,13.90
2023-04-07T13:38:30.227Z,13.90
2023-04-07T13:40:57.977Z,13.90
2023-04-07T13:43:25.137Z,13.90
2023-04-07T13:45:52.966Z,13.90
2023-04-07T13:48:20.728Z,13.80
2023-04-07T13:50:48.165Z,13.80
2023-04-07T13:53:17.828Z,13.80
2023-04-07T13:55:46.457Z,13.70
2023-04-07T13:58:13.517Z,13.60
2023-04-07T14:00:41.072Z,13.50
2023-04-07T14:03:08.708Z,13.50
2023-04-07T14:05:36.297Z,13.40
2023-04-07T14:08:03.332Z,13.30
2023-04-07T14:10:31.555Z,13.30
2023-04-07T14:12:58.716Z,13.40
2023-04-07T14:15:26.470Z,13.50
2023-04-07T14:17:54.236Z,13.50
2023-04-07T14:20:21.665Z,13.60
2023-04-07T14:22:48.702Z,13.70
2023-04-07T14:25:16.654Z,13.80
2023-04-07T14:27:43.864Z,13.80
2023-04-07T14:30:11.778Z,13.90
2023-04-07T14:32:38.839Z,13.90
2023-04-07T14:35:06.720Z,13.90
2023-04-07T14:37:35.868Z,13.90
2023-04-07T14:40:05.114Z,13.90
2023-04-07T14:42:33.411Z,13.90
2023-04-07T14:45:01.896Z,13.90
2023-04-07T14:47:29.287Z,13.90
2023-04-07T14:49:56.684Z,14.00
2023-04-07T14:52:23.753Z,14.10
2023-04-07T14:54:51.147Z,14.30
2023-04-07T14:57:18.148Z,14.40
2023-04-07T14:59:47.149Z,14.60
2023-04-07T15:02:14.373Z,14.70
2023-04-07T15:04:41.885Z,14.80
2023-04-07T15:07:09.479Z,14.80
2023-04-07T15:09:37.061Z,14.80
2023-04-07T15:12:05.290Z,14.80
2023-04-07T15:14:33.338Z,14.80
2023-04-07T15:17:00.728Z,14.80
2023-04-07T15:19:28.118Z,14.90
2023-04-07T15:21:55.240Z,14.90
2023-04-07T15:24:22.697Z,15.00
2023-04-07T15:26:50.201Z,15.10
2023-04-07T15:29:17.823Z,15.10
2023-04-07T15:31:45.025Z,15.10
2023-04-07T15:34:12.968Z,15.10
2023-04-07T15:36:40.397Z,15.00
2023-04-07T15:39:08.200Z,14.90
2023-04-07T15:41:35.865Z,14.90
2023-04-07T15:44:04.428Z,14.90
2023-04-07T15:46:34.470Z,15.00
2023-04-07T15:49:02.061Z,15.00
2023-04-07T15:51:29.948Z,15.00
2023-04-07T15:53:57.429Z,15.00
2023-04-07T15:56:24.879Z,15.00
2023-04-07T15:58:52.651Z,14.90
2023-04-07T16:01:20.128Z,14.90
2023-04-07T16:03:47.907Z,14.90
2023-04-07T16:06:15.483Z,14.90
2023-04-07T16:08:42.814Z,14.80
2023-04-07T16:11:09.911Z,14.80
2023-04-07T16:13:37.367Z,14.70
2023-04-07T16:16:04.793Z,14.70
2023-04-07T16:18:32.062Z,14.70
2023-04-07T16:20:59.239Z,14.60
2023-04-07T16:23:26.602Z,14.60
2023-04-07T16:25:53.692Z,14.40
2023-04-07T16:28:21.086Z,14.40
2023-04-07T16:30:48.168Z,14.30
2023-04-07T16:33:15.483Z,14.20
2023-04-07T16:35:42.838Z,14.10
2023-04-07T16:38:10.373Z,14.00
2023-04-07T16:40:37.440Z,13.90
2023-04-07T16:43:04.738Z,13.80
2023-04-07T16:45:31.854Z,13.70
2023-04-07T16:47:59.838Z,13.60
2023-04-07T16:50:27.157Z,13.50
2023-04-07T16:52:57.311Z,13.40
2023-04-07T16:55:24.528Z,13.30
2023-04-07T16:57:52.092Z,13.20
2023-04-07T17:00:20.282Z,13.10
2023-04-07T17:02:49.347Z,13.00
2023-04-07T17:05:18.069Z,13.00
2023-04-07T17:07:45.650Z,12.90
2023-04-07T17:10:14.061Z,12.90
2023-04-07T17:12:41.466Z,12.80
2023-04-07T17:15:09.081Z,12.80
2023-04-07T17:17:37.050Z,12.60
2023-04-07T17:20:04.843Z,12.60
2023-04-07T17:22:32.462Z,12.40
2023-04-07T17:24:59.512Z,12.30
2023-04-07T17:27:28.223Z,12.20
2023-04-07T17:29:55.890Z,12.10
2023-04-07T17:32:22.885Z,12.00
2023-04-07T17:34:50.280Z,11.80
2023-04-07T17:37:17.288Z,11.80
2023-04-07T17:39:44.770Z,11.60
2023-04-07T17:42:11.765Z,11.50
2023-04-07T17:44:39.098Z,11.40
2023-04-07T17:47:06.125Z,11.30
2023-04-07T17:49:33.683Z,11.30
2023-04-07T17:52:00.783Z,11.20
2023-04-07T17:54:28.322Z,11.10
2023-04-07T17:56:55.625Z,11.10
2023-04-07T17:59:23.019Z,11.00
2023-04-07T18:01:50.126Z,11.00
2023-04-07T18:04:17.703Z,11.00
2023-04-07T18:06:45.053Z,10.90
2023-04-07T18:09:12.430Z,10.90
2023-04-07T18:11:39.516Z,10.90
2023-04-07T18:14:07.308Z,10.80
2023-04-07T18:16:34.523Z,10.80
2023-04-07T18:19:02.859Z,10.80
2023-04-07T18:21:31.264Z,10.70
2023-04-07T18:23:58.680Z,10.70
2023-04-07T18:26:25.832Z,10.60
2023-04-07T18:28:53.394Z,10.50
2023-04-07T18:31:20.697Z,10.40
2023-04-07T18:33:49.058Z,10.40
2023-04-07T18:36:17.048Z,10.30
2023-04-07T18:38:44.604Z,10.10
2023-04-07T18:41:12.223Z,10.10
2023-04-07T18:43:39.535Z,10.10
2023-04-07T18:46:07.187Z,10.00
2023-04-07T18:48:34.834Z,10.00
2023-04-07T18:51:02.818Z,9.90
2023-04-07T18:53:30.223Z,9.90
2023-04-07T18:55:57.308Z,9.80
2023-04-07T18:58:24.700Z,9.80
2023-04-07T19:00:53.320Z,9.80
2023-04-07T19:03:21.802Z,9.80
2023-04-07T19:05:52.273Z,9.80
2023-04-07T19:08:20.453Z,9.70
2023-04-07T19:10:48.898Z,9.70
2023-04-07T19:13:18.982Z,9.70
2023-04-07T19:15:46.645Z,9.60
2023-04-07T19:18:14.184Z,9.60
2023-04-07T19:20:41.238Z,9.60
2023-04-07T19:23:08.618Z,9.60
2023-04-07T19:25:35.797Z,9.60
2023-04-07T19:28:03.254Z,9.50
2023-04-07T19:30:30.377Z,9.40
2023-04-07T19:32:57.924Z,9.40
2023-04-07T19:35:25.575Z,9.40
2023-04-07T19:37:53.781Z,9.30
2023-04-07T19:40:20.870Z,9.30
2023-04-07T19:42:48.268Z,9.20
2023-04-07T19:45:15.425Z,9.10
2023-04-07T19:47:43.533Z,9.10
2023-04-07T19:50:17.603Z,9.10
2023-04-07T19:52:45.572Z,8.90
2023-04-07T19:55:14.814Z,8.80
2023-04-07T19:57:42.141Z,8.80
2023-04-07T20:00:10.377Z,8.70
2023-04-07T20:02:49.010Z,8.60
2023-04-07T20:05:16.334Z,8.50
2023-04-07T20:07:44.846Z,8.50
2023-04-07T20:10:12.011Z,8.40
2023-04-07T20:12:39.654Z,8.30
2023-04-07T20:15:07.991Z,8.30
2023-04-07T20:17:36.974Z,8.30
2023-04-07T20:20:05.799Z,8.20
2023-04-07T20:22:34.158Z,8.10
2023-04-07T20:25:05.348Z,8.10
2023-04-07T20:27:33.706Z,8.00
2023-04-07T20:30:01.260Z,8.10
2023-04-07T20:32:29.119Z,8.00
2023-04-07T20:34:56.215Z,7.90
2023-04-07T20:37:23.662Z,7.90
2023-04-07T20:39:50.749Z,7.90
2023-04-07T20:42:18.065Z,7.80
2023-04-07T20:44:48.579Z,7.80
2023-04-07T20:47:16.686Z,7.70
2023-04-07T20:49:44.039Z,7.60
2023-04-07T20:52:11.664Z,7.60
2023-04-07T20:54:40.292Z,7.50
2023-04-07T20:57:07.665Z,7.50
2023-04-07T20:59:34.663Z,7.40
2023-04-07T21:02:02.071Z,7.30
2023-04-07T21:04:29.422Z,7.30
2023-04-07T21:06:57.002Z,7.20
2023-04-07T21:09:24.202Z,7.20
2023-04-07T21:11:51.698Z,7.10
2023-04-07T21:14:18.837Z,7.10
2023-04-07T21:16:46.299Z,7.00
2023-04-07T21:19:13.746Z,7.00
2023-04-07T21:21:41.271Z,6.90
2023-04-07T21:24:08.426Z,6.80
2023-04-07T21:26:36.473Z,6.90
2023-04-07T21:29:03.572Z,6.80
2023-04-07T21:31:30.960Z,6.70
2023-04-07T21:33:58.382Z,6.70
2023-04-07T21:36:27.043Z,6.70
2023-04-07T21:38:54.232Z,6.60
2023-04-07T21:41:22.113Z,6.60
2023-04-07T21:43:49.314Z,6.50
2023-04-07T21:46:17.064Z,6.50
2023-04-07T21:48:44.346Z,6.50
2023-04-07T21:51:12.007Z,6.40
2023-04-07T21:53:39.290Z,6.40
2023-04-07T21:56:09.359Z,6.40
2023-04-07T21:58:37.398Z,6.30
2023-04-07T22:01:05.146Z,6.20
2023-04-07T22:03:32.689Z,6.20
2023-04-07T22:06:01.167Z,6.20
2023-04-07T22:08:28.634Z,6.10
2023-04-07T22:10:56.766Z,6.10
2023-04-07T22:13:24.048Z,6.10
2023-04-07T22:15:52.112Z,6.00
2023-04-07T22:18:22.036Z,6.00
2023-04-07T22:20:49.657Z,6.00
2023-04-07T22:23:16.805Z,5.90
2023-04-07T22:25:44.266Z,5.80
2023-04-07T22:28:11.351Z,5.80
2023-04-07T22:30:38.773Z,5.80
2023-04-07T22:33:07.062Z,5.70
2023-04-07T22:35:34.863Z,5.70
2023-04-07T22:38:02.010Z,5.70
2023-04-07T22:40:29.433Z,5.60
2023-04-07T22:42:56.436Z,5.60
2023-04-07T22:45:23.856Z,5.50
2023-04-07T22:47:51.625Z,5.50
2023-04-07T22:50:19.293Z,5.50
2023-04-07T22:52:46.519Z,5.40
2023-04-07T22:55:14.950Z,5.40
2023-04-07T22:57:43.175Z,5.30
2023-04-07T23:00:12.041Z,5.20
2023-04-07T23:02:39.793Z,5.20
2023-04-07T23:05:07.842Z,5.20
2023-04-07T23:07:34.923Z,5.10
2023-04-07T23:10:02.781Z,5.10
2023-04-07T23:12:30.062Z,5.00
2023-04-07T23:14:57.647Z,5.00
2023-04-07T23:17:24.814Z,4.90
2023-04-07T23:19:52.134Z,4.90
2023-04-07T23:22:19.200Z,4.80
2023-04-07T23:24:47.068Z,4.80
2023-04-07T23:27:14.108Z,4.70
2023-04-07T23:29:41.353Z,4.70
2023-04-07T23:32:08.502Z,4.60
2023-04-07T23:34:35.987Z,4.60
2023-04-07T23:37:03.251Z,4.50
2023-04-07T23:39:30.849Z,4.50
2023-04-07T23:41:58.015Z,4.50
2023-04-07T23:44:25.777Z,4.40
2023-04-07T23:46:52.974Z,4.40
2023-04-07T23:49:20.369Z,4.40
2023-04-07T23:51:47.499Z,4.30
2023-04-07T23:54:14.732Z,4.30
2023-04-07T23:56:42.385Z,4.30
2023-04-07T23:59:09.771Z,4.20
